Pagina principală
METAR-TAF:

METAR-TAF

Aeroporturi :

Chillán, Chile

Latitudine: 36-34S, longitudine: 072-02W, elevație: 124 m

Observații meteo curente

Raportul a fost făcut în urmă cu 11 ore și 57 de minute, la 22:00 UTC
Vânt 3 kt de la Sud-vest
Temperatură 11°C
Umiditate 82%
Presiune 1019 hPa
Vizibilitate de 10 km sau mai mult
Nori puțini la o înălțime de 7000 picior
Nori împrăștiați la o înălțime de 20000 picior

METAR: SCCH 272200Z 22003KT 9999 FEW070 SCT200 11/08 Q1019

Ora: 05:57 (09:57 UTC)


TAF: lipsă

Observații și prognoze meteo pentru peste 4.000 de aeroporturi (rapoarte METAR și TAF).

Stațiile disponibile sunt reprezentate pe hartă prin puncte galbene și roșii.

Țineți indicatorul mouse-ului pe punctul dorit pentru a vedea denumirea stației.

Apoi, faceți clic pentru a vedea observațiile și prognozele meteorologice.

Pentru a schimba harta: Pentru mărire, faceți clic pe butoanele verzi cu cruce neagră; pentru micșorare, pe butonul verde cu o liniuță; pentru hărți învecinate, pe săgețile verzi.


METAR-TAF: